createdAt,value
2023-05-06T00:01:40.846Z,14
2023-05-06T00:06:40.836Z,18
2023-05-06T00:11:40.848Z,16
2023-05-06T00:16:40.850Z,18
2023-05-06T00:21:40.852Z,16
2023-05-06T00:26:40.854Z,10
2023-05-06T00:31:40.844Z,15
2023-05-06T00:36:40.857Z,17
2023-05-06T00:41:40.848Z,14
2023-05-06T00:46:40.860Z,12
2023-05-06T00:51:40.862Z,14
2023-05-06T00:56:40.853Z,15
2023-05-06T01:01:40.866Z,19
2023-05-06T01:06:40.856Z,16
2023-05-06T01:11:40.869Z,11
2023-05-06T01:16:40.870Z,18
2023-05-06T01:21:40.872Z,16
2023-05-06T01:26:40.875Z,9
2023-05-06T01:31:40.865Z,11
2023-05-06T01:36:40.877Z,16
2023-05-06T01:41:40.868Z,15
2023-05-06T01:46:40.881Z,12
2023-05-06T01:51:40.882Z,13
2023-05-06T01:56:40.873Z,13
2023-05-06T02:01:40.886Z,12
2023-05-06T02:06:40.877Z,12
2023-05-06T02:11:40.889Z,16
2023-05-06T02:16:40.880Z,14
2023-05-06T02:21:40.893Z,16
2023-05-06T02:26:40.894Z,12
2023-05-06T02:31:40.885Z,14
2023-05-06T02:36:40.898Z,14
2023-05-06T02:41:40.889Z,16
2023-05-06T02:46:40.901Z,17
2023-05-06T02:51:40.903Z,14
2023-05-06T02:56:40.905Z,16
2023-05-06T03:01:40.907Z,7
2023-05-06T03:06:40.897Z,11
2023-05-06T03:11:40.910Z,10
2023-05-06T03:16:40.900Z,13
2023-05-06T03:21:40.913Z,11
2023-05-06T03:26:40.915Z,9
2023-05-06T03:31:40.905Z,21
2023-05-06T03:36:40.919Z,11
2023-05-06T03:41:40.909Z,12
2023-05-06T03:46:40.921Z,11
2023-05-06T03:51:40.923Z,11
2023-05-06T03:56:40.924Z,12
2023-05-06T04:01:40.927Z,12
2023-05-06T04:06:40.917Z,13
2023-05-06T04:11:40.929Z,16
2023-05-06T04:16:40.920Z,8
2023-05-06T04:21:40.932Z,13
2023-05-06T04:26:40.934Z,10
2023-05-06T04:31:40.925Z,12
2023-05-06T04:36:40.938Z,14
2023-05-06T04:41:40.928Z,12
2023-05-06T04:46:40.941Z,11
2023-05-06T04:56:40.944Z,18
2023-05-06T05:01:40.985Z,15
2023-05-06T05:06:40.936Z,13
2023-05-06T05:11:40.949Z,19
2023-05-06T05:16:40.939Z,13
2023-05-06T05:21:40.952Z,10
2023-05-06T05:26:40.953Z,16
2023-05-06T05:31:40.955Z,10
2023-05-06T05:36:40.957Z,16
2023-05-06T05:41:40.948Z,19
2023-05-06T05:46:40.960Z,18
2023-05-06T05:51:40.951Z,11
2023-05-06T05:56:40.964Z,18
2023-05-06T06:01:40.965Z,19
2023-05-06T06:06:40.956Z,19
2023-05-06T06:11:40.969Z,19
2023-05-06T06:16:40.960Z,15
2023-05-06T06:21:40.972Z,23
2023-05-06T06:26:40.974Z,20
2023-05-06T06:31:40.976Z,23
2023-05-06T06:36:40.978Z,22
2023-05-06T06:41:40.969Z,16
2023-05-06T06:46:40.981Z,20
2023-05-06T06:51:40.972Z,19
2023-05-06T06:56:40.985Z,22
2023-05-06T07:01:40.987Z,28
2023-05-06T07:06:40.978Z,22
2023-05-06T07:11:40.992Z,22
2023-05-06T07:16:40.982Z,28
2023-05-06T07:21:40.995Z,24
2023-05-06T07:26:40.986Z,26
2023-05-06T07:31:40.999Z,27
2023-05-06T07:36:41.001Z,26
2023-05-06T07:41:40.992Z,29
2023-05-06T07:46:41.005Z,31
2023-05-06T07:51:40.996Z,28
2023-05-06T07:56:41.009Z,33
2023-05-06T08:01:41.011Z,37
2023-05-06T08:06:41.013Z,37
2023-05-06T08:11:41.015Z,34
2023-05-06T08:16:41.006Z,29
2023-05-06T08:21:41.019Z,30
2023-05-06T08:26:41.011Z,26
2023-05-06T08:31:41.024Z,34
2023-05-06T08:36:41.027Z,39
2023-05-06T08:41:41.019Z,27
2023-05-06T08:46:41.033Z,34
2023-05-06T08:51:41.024Z,30
2023-05-06T08:56:41.038Z,26
2023-05-06T09:01:41.041Z,33
2023-05-06T09:06:41.043Z,36
2023-05-06T09:11:41.047Z,30
2023-05-06T09:16:41.038Z,31
2023-05-06T09:21:41.052Z,34
2023-05-06T09:26:41.043Z,40
2023-05-06T09:31:41.057Z,29
2023-05-06T09:36:41.059Z,30
2023-05-06T09:41:41.087Z,40
2023-05-06T09:46:41.065Z,36
2023-05-06T09:51:41.056Z,35
2023-05-06T09:56:41.070Z,27
2023-05-06T10:01:41.073Z,35
2023-05-06T10:06:41.075Z,34
2023-05-06T10:11:41.079Z,30
2023-05-06T10:16:41.070Z,29
2023-05-06T10:21:41.084Z,26
2023-05-06T10:26:41.075Z,40
2023-05-06T10:31:41.088Z,30
2023-05-06T10:36:41.091Z,25
2023-05-06T10:41:41.094Z,31
2023-05-06T10:46:41.097Z,29
2023-05-06T10:51:41.088Z,25
2023-05-06T10:56:41.102Z,23
2023-05-06T11:01:41.094Z,39
2023-05-06T11:06:41.107Z,38
2023-05-06T11:11:41.110Z,29
2023-05-06T11:16:41.102Z,26
2023-05-06T11:21:41.116Z,31
2023-05-06T11:26:41.107Z,30
2023-05-06T11:31:41.121Z,23
2023-05-06T11:36:41.123Z,28
2023-05-06T11:41:41.126Z,37
2023-05-06T11:46:41.130Z,38
2023-05-06T11:51:41.121Z,29
2023-05-06T11:56:41.134Z,38
2023-05-06T12:01:41.126Z,34
2023-05-06T12:06:41.140Z,34
2023-05-06T12:11:41.143Z,36
2023-05-06T12:16:41.135Z,30
2023-05-06T12:21:41.149Z,36
2023-05-06T12:26:41.141Z,32
2023-05-06T12:31:41.155Z,27
2023-05-06T12:36:41.147Z,36
2023-05-06T12:41:41.160Z,40
2023-05-06T12:46:41.164Z,32
2023-05-06T12:51:41.155Z,41
2023-05-06T12:56:41.195Z,47
2023-05-06T13:01:41.161Z,39
2023-05-06T13:06:41.176Z,34
2023-05-06T13:11:41.178Z,37
2023-05-06T13:16:41.181Z,41
2023-05-06T13:21:41.184Z,43
2023-05-06T13:26:41.175Z,37
2023-05-06T13:31:41.189Z,37
2023-05-06T13:36:41.181Z,26
2023-05-06T13:41:41.195Z,31
2023-05-06T13:46:41.197Z,40
2023-05-06T13:51:41.189Z,34
2023-05-06T13:56:41.204Z,32
2023-05-06T14:01:41.195Z,28
2023-05-06T14:06:41.208Z,35
2023-05-06T14:11:41.211Z,30
2023-05-06T14:16:41.214Z,35
2023-05-06T14:21:41.217Z,36
2023-05-06T14:26:41.208Z,35
2023-05-06T14:31:41.222Z,45
2023-05-06T14:36:41.214Z,38
2023-05-06T14:41:41.227Z,34
2023-05-06T14:46:42.183Z,41
2023-05-06T14:51:41.222Z,40
2023-05-06T14:56:41.236Z,42
2023-05-06T15:01:41.227Z,41
2023-05-06T15:06:41.241Z,38
2023-05-06T15:11:41.244Z,30
2023-05-06T15:16:41.246Z,38
2023-05-06T15:21:41.313Z,38
2023-05-06T15:26:41.241Z,40
2023-05-06T15:31:41.300Z,30
2023-05-06T15:36:41.246Z,39
2023-05-06T15:41:41.260Z,30
2023-05-06T15:46:48.216Z,35
2023-05-06T15:51:41.290Z,40
2023-05-06T15:56:41.269Z,36
2023-05-06T16:01:41.260Z,45
2023-05-06T16:06:41.273Z,45
2023-05-06T16:11:41.265Z,39
2023-05-06T16:16:41.278Z,38
2023-05-06T16:21:41.281Z,45
2023-05-06T16:26:41.273Z,42
2023-05-06T16:31:41.287Z,29
2023-05-06T16:36:41.278Z,38
2023-05-06T16:41:41.291Z,42
2023-05-06T16:46:54.208Z,36
2023-05-06T16:51:41.296Z,32
2023-05-06T16:56:41.299Z,38
2023-05-06T17:01:41.290Z,37
2023-05-06T17:06:41.304Z,41
2023-05-06T17:11:41.295Z,47
2023-05-06T17:16:41.309Z,34
2023-05-06T17:21:41.311Z,36
2023-05-06T17:26:41.303Z,30
2023-05-06T17:31:41.317Z,35
2023-05-06T17:36:41.307Z,41
2023-05-06T17:41:41.321Z,50
2023-05-06T17:47:00.181Z,36
2023-05-06T17:51:41.326Z,28
2023-05-06T17:56:41.328Z,28
2023-05-06T18:01:41.319Z,34
2023-05-06T18:06:41.332Z,26
2023-05-06T18:11:41.324Z,28
2023-05-06T18:16:41.337Z,29
2023-05-06T18:21:41.339Z,32
2023-05-06T18:26:41.330Z,33
2023-05-06T18:31:41.344Z,33
2023-05-06T18:36:41.335Z,34
2023-05-06T18:41:41.348Z,30
2023-05-06T18:47:06.184Z,34
2023-05-06T18:51:41.352Z,25
2023-05-06T18:56:41.355Z,28
2023-05-06T19:01:41.345Z,26
2023-05-06T19:06:41.358Z,31
2023-05-06T19:11:41.349Z,24
2023-05-06T19:16:41.412Z,23
2023-05-06T19:21:41.364Z,28
2023-05-06T19:26:41.408Z,23
2023-05-06T19:31:41.369Z,26
2023-05-06T19:36:41.359Z,24
2023-05-06T19:41:41.372Z,28
2023-05-06T19:46:55.729Z,25
2023-05-06T19:51:41.376Z,28
2023-05-06T19:56:41.379Z,34
2023-05-06T20:01:41.369Z,28
2023-05-06T20:06:41.382Z,23
2023-05-06T20:11:41.373Z,31
2023-05-06T20:16:41.386Z,22
2023-05-06T20:21:41.388Z,20
2023-05-06T20:26:41.389Z,23
2023-05-06T20:31:41.392Z,25
2023-05-06T20:36:41.382Z,27
2023-05-06T20:41:41.395Z,20
2023-05-06T20:46:41.386Z,26
2023-05-06T20:51:41.399Z,26
2023-05-06T20:56:41.400Z,19
2023-05-06T21:01:41.391Z,22
2023-05-06T21:06:41.405Z,19
2023-05-06T21:11:41.395Z,19
2023-05-06T21:16:41.408Z,24
2023-05-06T21:21:41.409Z,15
2023-05-06T21:26:41.411Z,22
2023-05-06T21:31:41.414Z,27
2023-05-06T21:36:41.404Z,22
2023-05-06T21:41:41.417Z,20
2023-05-06T21:46:41.407Z,17
2023-05-06T21:51:41.420Z,19
2023-05-06T21:56:41.422Z,15
2023-05-06T22:01:41.413Z,22
2023-05-06T22:06:41.426Z,11
2023-05-06T22:11:41.416Z,16
2023-05-06T22:16:41.429Z,14
2023-05-06T22:21:41.431Z,15
2023-05-06T22:26:41.433Z,13
2023-05-06T22:31:41.435Z,14
2023-05-06T22:36:41.425Z,14
2023-05-06T22:41:41.438Z,17
2023-05-06T22:46:41.429Z,15
2023-05-06T22:51:41.466Z,18
2023-05-06T22:56:41.443Z,16
2023-05-06T23:01:41.446Z,15
2023-05-06T23:06:41.447Z,20
2023-05-06T23:11:41.437Z,15
2023-05-06T23:16:41.450Z,15
2023-05-06T23:21:41.441Z,17
2023-05-06T23:26:41.453Z,14
2023-05-06T23:31:41.455Z,16
2023-05-06T23:36:41.446Z,18
2023-05-06T23:41:41.459Z,16
2023-05-06T23:46:41.449Z,16
2023-05-06T23:51:41.461Z,15
2023-05-06T23:56:41.463Z,12
